createdAt,value
2019-01-11T00:01:30.198Z,5.53
2019-01-11T00:03:57.121Z,6.00
2019-01-11T00:06:24.054Z,4.90
2019-01-11T00:08:51.030Z,4.10
2019-01-11T00:11:17.847Z,3.53
2019-01-11T00:13:44.875Z,4.77
2019-01-11T00:16:11.934Z,4.10
2019-01-11T00:18:38.949Z,4.27
2019-01-11T00:21:05.751Z,4.70
2019-01-11T00:23:32.722Z,4.87
2019-01-11T00:25:59.562Z,4.60
2019-01-11T00:28:26.382Z,4.10
2019-01-11T00:30:53.550Z,3.63
2019-01-11T00:33:20.451Z,3.50
2019-01-11T00:35:47.383Z,3.90
2019-01-11T00:38:14.231Z,3.70
2019-01-11T00:40:41.052Z,3.70
2019-01-11T00:43:07.850Z,3.80
2019-01-11T00:45:34.896Z,4.00
2019-01-11T00:48:01.931Z,3.50
2019-01-11T00:50:28.874Z,3.60
2019-01-11T00:52:55.737Z,3.93
2019-01-11T00:55:22.782Z,3.97
2019-01-11T00:57:49.601Z,3.53
2019-01-11T01:00:18.563Z,3.83
2019-01-11T01:02:45.590Z,4.00
2019-01-11T01:05:12.758Z,3.87
2019-01-11T01:07:39.817Z,4.53
2019-01-11T01:10:06.954Z,4.60
2019-01-11T01:12:33.995Z,5.10
2019-01-11T01:15:01.087Z,5.80
2019-01-11T01:17:28.113Z,6.20
2019-01-11T01:19:55.153Z,6.60
2019-01-11T01:22:22.122Z,7.13
2019-01-11T01:24:49.179Z,7.60
2019-01-11T01:27:16.204Z,7.47
2019-01-11T01:29:43.353Z,7.60
2019-01-11T01:32:10.248Z,8.80
2019-01-11T01:34:37.187Z,8.57
2019-01-11T01:37:04.294Z,9.20
2019-01-11T01:39:31.315Z,9.67
2019-01-11T01:41:58.362Z,10.27
2019-01-11T01:44:25.322Z,11.20
2019-01-11T01:46:52.149Z,10.70
2019-01-11T01:49:19.062Z,10.73
2019-01-11T01:51:46.041Z,11.40
2019-01-11T01:54:13.190Z,11.13
2019-01-11T01:56:40.210Z,10.40
2019-01-11T01:59:07.286Z,11.43
2019-01-11T02:01:34.230Z,12.17
2019-01-11T02:04:01.147Z,11.73
2019-01-11T02:06:28.064Z,11.87
2019-01-11T02:08:54.994Z,12.23
2019-01-11T02:11:21.822Z,12.70
2019-01-11T02:13:48.797Z,11.57
2019-01-11T02:16:15.631Z,11.30
2019-01-11T02:18:42.580Z,11.00
2019-01-11T02:21:09.635Z,10.43
2019-01-11T02:23:36.449Z,11.43
2019-01-11T02:26:03.473Z,10.10
2019-01-11T02:28:30.360Z,10.63
2019-01-11T02:30:57.185Z,10.67
2019-01-11T02:33:24.954Z,10.77
2019-01-11T02:35:52.266Z,10.80
2019-01-11T02:38:19.304Z,11.83
2019-01-11T02:40:46.328Z,10.63
2019-01-11T02:43:13.385Z,11.40
2019-01-11T02:45:40.315Z,11.30
2019-01-11T02:48:07.375Z,11.73
2019-01-11T02:50:34.354Z,12.47
2019-01-11T02:53:01.273Z,11.83
2019-01-11T02:55:28.241Z,12.77
2019-01-11T02:57:55.436Z,12.37
2019-01-11T03:00:22.457Z,14.23
2019-01-11T03:02:49.494Z,14.90
2019-01-11T03:05:16.994Z,15.70
2019-01-11T03:07:44.481Z,17.53
2019-01-11T03:10:14.495Z,16.30
2019-01-11T03:12:41.555Z,16.43
2019-01-11T03:15:08.851Z,16.73
2019-01-11T03:17:35.767Z,17.00
2019-01-11T03:20:04.291Z,17.80
2019-01-11T03:22:31.103Z,17.67
2019-01-11T03:24:57.912Z,20.90
2019-01-11T03:27:24.997Z,20.30
2019-01-11T03:29:51.915Z,22.20
2019-01-11T03:32:18.755Z,24.37
2019-01-11T03:35:11.186Z,26.17
2019-01-11T03:37:38.130Z,27.70
2019-01-11T03:40:06.255Z,29.50
2019-01-11T03:42:36.114Z,32.73
2019-01-11T03:45:04.771Z,27.77
2019-01-11T03:47:31.677Z,29.73
2019-01-11T03:49:58.557Z,30.23
2019-01-11T03:52:25.503Z,33.80
2019-01-11T03:54:52.516Z,34.23
2019-01-11T03:57:19.569Z,36.00
2019-01-11T03:59:46.606Z,38.97
2019-01-11T04:02:13.542Z,42.77
2019-01-11T04:04:40.585Z,39.57
2019-01-11T04:07:07.601Z,42.20
2019-01-11T04:09:34.459Z,49.50
2019-01-11T04:12:01.451Z,44.10
2019-01-11T04:14:28.392Z,50.83
2019-01-11T04:16:55.326Z,44.83
2019-01-11T04:19:22.423Z,46.80
2019-01-11T04:22:06.572Z,46.80
2019-01-11T04:24:43.756Z,47.17
2019-01-11T04:27:10.825Z,49.77
2019-01-11T04:29:37.892Z,47.20
2019-01-11T04:32:05.148Z,50.67
2019-01-11T04:34:32.071Z,50.90
2019-01-11T04:36:59.137Z,49.93
2019-01-11T04:39:26.002Z,50.47
2019-01-11T04:41:52.975Z,49.97
2019-01-11T04:44:19.796Z,43.80
2019-01-11T04:46:46.752Z,48.57
2019-01-11T04:49:13.589Z,51.60
2019-01-11T04:51:40.593Z,46.17
2019-01-11T04:54:07.482Z,45.10
2019-01-11T04:56:34.511Z,56.97
2019-01-11T04:59:01.579Z,53.57
2019-01-11T05:01:28.906Z,48.27
2019-01-11T05:03:56.461Z,47.27
2019-01-11T05:06:23.319Z,41.57
2019-01-11T05:08:50.362Z,41.70
2019-01-11T05:11:17.190Z,36.43
2019-01-11T05:13:49.572Z,35.80
2019-01-11T05:16:16.724Z,36.63
2019-01-11T05:18:44.500Z,36.80
2019-01-11T05:21:11.542Z,38.07
2019-01-11T05:23:38.627Z,36.33
2019-01-11T05:26:05.688Z,36.20
2019-01-11T05:28:32.598Z,32.30
2019-01-11T05:30:59.756Z,34.37
2019-01-11T05:33:26.696Z,34.03
2019-01-11T05:35:53.680Z,35.47
2019-01-11T05:38:20.521Z,34.87
2019-01-11T05:40:47.593Z,34.70
2019-01-11T05:43:14.525Z,34.30
2019-01-11T05:45:41.415Z,33.37
2019-01-11T05:48:08.435Z,33.87
2019-01-11T05:50:35.354Z,31.53
2019-01-11T05:53:02.288Z,33.87
2019-01-11T05:55:43.991Z,34.13
2019-01-11T05:58:42.550Z,32.80
2019-01-11T06:01:10.260Z,32.37
2019-01-11T06:03:37.188Z,32.87
2019-01-11T06:06:05.294Z,31.07
2019-01-11T06:08:32.818Z,32.37
2019-01-11T06:10:59.813Z,29.30
2019-01-11T06:13:26.883Z,30.40
2019-01-11T06:15:54.039Z,30.97
2019-01-11T06:18:20.988Z,29.77
2019-01-11T06:20:48.267Z,31.57
2019-01-11T06:23:15.079Z,30.67
2019-01-11T06:25:41.890Z,31.00
2019-01-11T06:28:08.979Z,30.47
2019-01-11T06:30:35.817Z,30.43
2019-01-11T06:33:02.868Z,27.17
2019-01-11T06:35:29.913Z,27.87
2019-01-11T06:37:56.875Z,26.93
2019-01-11T06:40:23.693Z,27.07
2019-01-11T06:42:50.653Z,28.00
2019-01-11T06:45:17.594Z,27.10
2019-01-11T06:47:44.501Z,26.57
2019-01-11T06:50:12.330Z,26.73
2019-01-11T06:52:39.164Z,28.13
2019-01-11T06:55:06.568Z,26.77
2019-01-11T06:57:33.540Z,26.83
2019-01-11T07:00:00.477Z,26.67
2019-01-11T07:02:27.549Z,28.07
2019-01-11T07:04:54.523Z,26.43
2019-01-11T07:07:21.497Z,25.23
2019-01-11T07:09:48.511Z,25.00
2019-01-11T07:12:15.779Z,30.63
2019-01-11T07:14:42.826Z,25.53
2019-01-11T07:17:09.871Z,25.33
2019-01-11T07:19:36.879Z,25.07
2019-01-11T07:22:03.919Z,24.37
2019-01-11T07:24:30.966Z,23.03
2019-01-11T07:26:57.913Z,22.47
2019-01-11T07:29:24.959Z,22.37
2019-01-11T07:31:53.111Z,22.53
2019-01-11T07:34:19.978Z,21.33
2019-01-11T07:36:49.521Z,20.63
2019-01-11T07:39:26.784Z,18.77
2019-01-11T07:41:53.785Z,17.70
2019-01-11T07:44:20.733Z,17.00
2019-01-11T07:46:47.730Z,15.37
2019-01-11T07:49:14.750Z,13.53
2019-01-11T07:51:41.783Z,12.90
2019-01-11T07:54:08.911Z,12.50
2019-01-11T07:56:36.391Z,11.70
2019-01-11T07:59:03.916Z,12.20
2019-01-11T08:01:34.637Z,12.40
2019-01-11T08:04:01.928Z,12.23
2019-01-11T08:06:31.254Z,10.37
2019-01-11T08:08:58.618Z,10.93
2019-01-11T08:11:25.755Z,10.00
2019-01-11T08:13:52.785Z,8.93
2019-01-11T08:16:19.843Z,11.60
2019-01-11T08:18:46.890Z,10.37
2019-01-11T08:21:13.823Z,10.40
2019-01-11T08:23:40.782Z,11.30
2019-01-11T08:26:07.855Z,10.10
2019-01-11T08:28:34.933Z,9.60
2019-01-11T08:31:01.893Z,9.93
2019-01-11T08:33:31.069Z,9.90
2019-01-11T08:35:58.382Z,10.17
2019-01-11T08:38:25.442Z,9.83
2019-01-11T08:40:52.374Z,10.83
2019-01-11T08:43:19.206Z,8.47
2019-01-11T08:45:46.147Z,8.63
2019-01-11T08:48:13.200Z,9.30
2019-01-11T08:50:40.332Z,9.90
2019-01-11T08:53:07.247Z,8.40
2019-01-11T08:55:34.257Z,7.90
2019-01-11T08:58:01.311Z,9.80
2019-01-11T09:00:28.422Z,8.27
2019-01-11T09:02:55.437Z,8.13
2019-01-11T09:05:22.384Z,7.63
2019-01-11T09:07:49.259Z,8.07
2019-01-11T09:10:22.430Z,7.37
2019-01-11T09:12:45.168Z,6.57
2019-01-11T09:15:12.467Z,8.20
2019-01-11T09:17:51.958Z,7.00
2019-01-11T09:20:19.018Z,6.43
2019-01-11T09:22:46.065Z,6.30
2019-01-11T09:25:13.023Z,7.07
2019-01-11T09:27:40.075Z,8.03
2019-01-11T09:30:07.230Z,5.97
2019-01-11T09:32:34.138Z,6.87
2019-01-11T09:35:01.133Z,5.63
2019-01-11T09:37:28.226Z,5.53
2019-01-11T09:40:08.320Z,4.93
2019-01-11T09:42:35.281Z,6.07
2019-01-11T09:45:03.221Z,4.30
2019-01-11T09:47:30.188Z,6.10
2019-01-11T09:49:57.036Z,5.33
2019-01-11T09:52:23.970Z,4.80
2019-01-11T09:54:50.925Z,5.07
2019-01-11T09:57:17.950Z,4.90
2019-01-11T09:59:44.959Z,4.80
2019-01-11T10:02:37.643Z,5.07
2019-01-11T10:05:07.469Z,3.90
2019-01-11T10:07:34.413Z,4.73
2019-01-11T10:10:01.391Z,4.73
2019-01-11T10:12:28.214Z,5.90
2019-01-11T10:14:55.299Z,4.30
2019-01-11T10:17:22.475Z,4.90
2019-01-11T10:19:49.413Z,3.63
2019-01-11T10:22:16.479Z,4.63
2019-01-11T10:24:43.412Z,3.97
2019-01-11T10:27:10.432Z,3.60
2019-01-11T10:29:37.684Z,3.37
2019-01-11T10:32:04.957Z,4.40
2019-01-11T10:34:31.970Z,3.67
2019-01-11T10:36:59.007Z,3.67
2019-01-11T10:39:25.955Z,3.13
2019-01-11T10:41:52.926Z,3.70
2019-01-11T10:44:19.966Z,3.33
2019-01-11T10:46:49.123Z,3.70
2019-01-11T10:49:16.395Z,2.77
2019-01-11T10:51:43.338Z,4.10
2019-01-11T10:54:19.800Z,3.97
2019-01-11T10:56:46.846Z,3.23
2019-01-11T10:59:13.784Z,2.87
2019-01-11T11:01:40.902Z,3.63
2019-01-11T11:04:07.936Z,2.77
2019-01-11T11:06:34.965Z,2.93
2019-01-11T11:09:02.084Z,3.10
2019-01-11T11:11:28.923Z,2.93
2019-01-11T11:13:55.975Z,3.90
2019-01-11T11:16:22.948Z,2.90
2019-01-11T11:18:50.001Z,3.23
2019-01-11T11:21:16.820Z,2.80
2019-01-11T11:23:43.701Z,3.27
2019-01-11T11:26:10.861Z,2.40
2019-01-11T11:28:37.817Z,3.00
2019-01-11T11:31:04.990Z,3.23
2019-01-11T11:33:31.814Z,2.47
2019-01-11T11:35:59.171Z,2.30
2019-01-11T11:38:26.131Z,3.17
2019-01-11T11:40:54.567Z,2.50
2019-01-11T11:43:21.514Z,3.37
2019-01-11T11:45:49.106Z,3.30
2019-01-11T11:48:16.151Z,2.90
2019-01-11T11:50:43.201Z,3.17
2019-01-11T11:53:10.194Z,2.67
2019-01-11T11:55:37.217Z,3.23
2019-01-11T11:58:04.293Z,2.60
2019-01-11T12:00:31.343Z,4.87
2019-01-11T12:02:58.267Z,2.93
2019-01-11T12:05:25.274Z,2.97
2019-01-11T12:07:52.334Z,3.13
2019-01-11T12:10:19.309Z,2.47
2019-01-11T12:12:48.668Z,3.40
2019-01-11T12:15:17.999Z,3.23
2019-01-11T12:17:44.985Z,2.70
2019-01-11T12:20:32.123Z,2.90
2019-01-11T12:22:59.956Z,2.53
2019-01-11T12:25:26.862Z,2.23
2019-01-11T12:27:53.857Z,3.13
2019-01-11T12:30:20.842Z,2.87
2019-01-11T12:32:47.638Z,2.97
2019-01-11T12:35:14.713Z,3.97
2019-01-11T12:37:41.857Z,2.77
2019-01-11T12:40:09.547Z,2.90
2019-01-11T12:42:36.602Z,2.57
2019-01-11T12:45:04.981Z,3.57
2019-01-11T12:47:31.805Z,3.27
2019-01-11T12:49:58.625Z,2.97
2019-01-11T12:52:25.664Z,3.07
2019-01-11T12:54:52.693Z,2.83
2019-01-11T12:57:21.088Z,2.83
2019-01-11T12:59:48.440Z,2.80
2019-01-11T13:02:16.805Z,3.90
2019-01-11T13:04:44.072Z,3.80
2019-01-11T13:07:10.899Z,3.23
2019-01-11T13:09:37.754Z,3.30
2019-01-11T13:12:04.943Z,3.80
2019-01-11T13:14:31.982Z,3.20
2019-01-11T13:16:58.794Z,4.23
2019-01-11T13:19:25.743Z,3.37
2019-01-11T13:21:52.771Z,4.10
2019-01-11T13:24:19.590Z,3.60
2019-01-11T13:26:46.521Z,3.83
2019-01-11T13:29:13.432Z,4.40
2019-01-11T13:31:40.260Z,3.70
2019-01-11T13:34:07.103Z,4.13
2019-01-11T13:36:34.172Z,3.67
2019-01-11T13:39:01.139Z,3.90
2019-01-11T13:41:28.189Z,4.77
2019-01-11T13:43:55.024Z,4.30
2019-01-11T13:46:22.028Z,4.13
2019-01-11T13:48:48.863Z,3.73
2019-01-11T13:51:15.766Z,4.23
2019-01-11T13:53:42.714Z,4.23
2019-01-11T13:56:09.644Z,6.00
2019-01-11T13:58:36.452Z,4.87
2019-01-11T14:01:03.801Z,4.13
2019-01-11T14:03:30.840Z,5.13
2019-01-11T14:05:57.857Z,5.40
2019-01-11T14:08:24.705Z,4.37
2019-01-11T14:10:51.577Z,4.43
2019-01-11T14:13:18.507Z,4.83
2019-01-11T14:15:45.531Z,4.67
2019-01-11T14:18:12.491Z,4.40
2019-01-11T14:20:39.301Z,4.67
2019-01-11T14:23:06.338Z,4.37
2019-01-11T14:25:33.374Z,6.37
2019-01-11T14:28:00.265Z,5.33
2019-01-11T14:30:27.196Z,4.50
2019-01-11T14:32:54.242Z,4.50
2019-01-11T14:35:21.258Z,5.10
2019-01-11T14:37:48.285Z,5.80
2019-01-11T14:40:15.649Z,4.60
2019-01-11T14:42:42.558Z,5.77
2019-01-11T14:45:11.418Z,5.20
2019-01-11T14:47:38.357Z,5.13
2019-01-11T14:50:08.096Z,5.03
2019-01-11T14:52:34.907Z,4.50
2019-01-11T14:55:01.945Z,4.57
2019-01-11T14:57:28.851Z,6.30
2019-01-11T14:59:55.677Z,5.03
2019-01-11T15:02:22.651Z,4.97
2019-01-11T15:04:49.456Z,5.77
2019-01-11T15:07:16.473Z,4.60
2019-01-11T15:09:43.348Z,5.10
2019-01-11T15:12:10.169Z,4.33
2019-01-11T15:14:37.090Z,4.00
2019-01-11T15:17:04.055Z,4.33
2019-01-11T15:19:31.260Z,5.13
2019-01-11T15:21:58.073Z,4.73
2019-01-11T15:24:24.922Z,4.60
2019-01-11T15:26:51.922Z,5.23
2019-01-11T15:29:18.847Z,4.40
2019-01-11T15:31:45.798Z,4.70
2019-01-11T15:34:12.634Z,4.93
2019-01-11T15:36:39.556Z,4.37
2019-01-11T15:39:07.514Z,5.83
2019-01-11T15:41:34.430Z,4.33
2019-01-11T15:44:01.358Z,4.17
2019-01-11T15:46:28.206Z,4.53
2019-01-11T15:48:55.310Z,4.63
2019-01-11T15:51:25.049Z,4.50
2019-01-11T15:53:51.981Z,4.10
2019-01-11T15:56:23.762Z,5.50
2019-01-11T15:58:50.821Z,5.50
2019-01-11T16:01:17.751Z,4.47
2019-01-11T16:03:44.784Z,4.60
2019-01-11T16:06:43.847Z,5.33
2019-01-11T16:09:23.246Z,5.67
2019-01-11T16:11:56.486Z,5.00
2019-01-11T16:14:47.524Z,4.40
2019-01-11T16:17:15.838Z,6.33
2019-01-11T16:19:42.759Z,6.17
2019-01-11T16:22:09.689Z,5.63
2019-01-11T16:24:36.646Z,5.13
2019-01-11T16:27:03.561Z,5.17
2019-01-11T16:29:30.353Z,5.83
2019-01-11T16:31:59.448Z,4.90
2019-01-11T16:34:26.525Z,4.10
2019-01-11T16:36:53.469Z,5.67
2019-01-11T16:39:20.454Z,5.60
2019-01-11T16:41:47.474Z,5.23
2019-01-11T16:44:14.489Z,4.80
2019-01-11T16:46:41.479Z,5.20
2019-01-11T16:49:08.403Z,5.00
2019-01-11T16:51:35.216Z,5.27
2019-01-11T16:54:02.166Z,5.13
2019-01-11T16:56:29.018Z,6.03
2019-01-11T16:58:56.041Z,5.53
2019-01-11T17:01:23.030Z,5.17
2019-01-11T17:03:49.950Z,4.37
2019-01-11T17:06:16.863Z,6.33
2019-01-11T17:08:43.818Z,5.20
2019-01-11T17:11:10.630Z,6.97
2019-01-11T17:13:40.664Z,6.63
2019-01-11T17:16:06.419Z,4.50
2019-01-11T17:18:33.250Z,5.80
2019-01-11T17:21:00.389Z,5.57
2019-01-11T17:23:27.441Z,7.03
2019-01-11T17:25:54.444Z,7.87
2019-01-11T17:28:21.489Z,7.17
2019-01-11T17:30:48.415Z,7.70
2019-01-11T17:33:15.217Z,7.63
2019-01-11T17:35:42.219Z,7.07
2019-01-11T17:38:09.050Z,7.50
2019-01-11T17:40:36.058Z,8.90
2019-01-11T17:43:03.479Z,12.47
2019-01-11T17:45:30.411Z,10.27
2019-01-11T17:47:57.439Z,9.83
2019-01-11T17:50:24.230Z,11.07
2019-01-11T17:52:51.275Z,12.93
2019-01-11T17:55:18.811Z,12.50
2019-01-11T17:57:45.835Z,10.57
2019-01-11T18:00:15.475Z,12.10
2019-01-11T18:02:42.399Z,7.13
2019-01-11T18:05:09.846Z,7.23
2019-01-11T18:07:36.882Z,9.53
2019-01-11T18:10:06.415Z,6.53
2019-01-11T18:12:33.425Z,9.43
2019-01-11T18:15:00.272Z,8.00
2019-01-11T18:17:27.178Z,7.30
2019-01-11T18:19:53.988Z,7.30
2019-01-11T18:22:20.955Z,8.67
2019-01-11T18:24:47.872Z,6.47
2019-01-11T18:27:14.822Z,5.97
2019-01-11T18:29:41.774Z,6.23
2019-01-11T18:32:08.850Z,6.73
2019-01-11T18:34:35.652Z,6.00
2019-01-11T18:37:02.695Z,6.37
2019-01-11T18:39:29.491Z,5.90
2019-01-11T18:41:56.308Z,7.87
2019-01-11T18:44:23.150Z,6.70
2019-01-11T18:46:50.058Z,7.00
2019-01-11T18:49:16.977Z,6.67
2019-01-11T18:51:44.177Z,6.53
2019-01-11T18:54:11.000Z,6.17
2019-01-11T18:56:38.119Z,7.03
2019-01-11T18:59:05.066Z,6.03
2019-01-11T19:01:32.060Z,5.53
2019-01-11T19:03:58.961Z,5.70
2019-01-11T19:06:26.012Z,5.70
2019-01-11T19:08:52.804Z,5.63
2019-01-11T19:11:19.622Z,5.17
2019-01-11T19:13:46.514Z,5.67
2019-01-11T19:16:13.405Z,4.33
2019-01-11T19:18:40.413Z,5.00
2019-01-11T19:21:09.494Z,5.37
2019-01-11T19:23:36.463Z,4.70
2019-01-11T19:26:03.469Z,5.37
2019-01-11T19:28:30.405Z,5.60
2019-01-11T19:30:57.306Z,4.90
2019-01-11T19:33:24.205Z,4.97
2019-01-11T19:35:51.162Z,5.20
2019-01-11T19:38:18.153Z,4.60
2019-01-11T19:40:45.050Z,5.57
2019-01-11T19:43:11.894Z,5.43
2019-01-11T19:45:38.712Z,5.00
2019-01-11T19:48:07.103Z,5.83
2019-01-11T19:50:34.140Z,6.17
2019-01-11T19:53:01.045Z,6.43
2019-01-11T19:55:27.953Z,7.30
2019-01-11T19:57:54.900Z,6.47
2019-01-11T20:00:28.246Z,6.30
2019-01-11T20:02:55.321Z,7.17
2019-01-11T20:05:23.191Z,7.20
2019-01-11T20:07:50.706Z,6.30
2019-01-11T20:10:20.842Z,6.50
2019-01-11T20:12:47.963Z,6.00
2019-01-11T20:15:15.144Z,5.07
2019-01-11T20:17:42.339Z,7.70
2019-01-11T20:20:10.942Z,9.10
2019-01-11T20:22:37.867Z,7.80
2019-01-11T20:25:10.543Z,5.50
2019-01-11T20:27:37.573Z,6.13
2019-01-11T20:30:05.545Z,5.67
2019-01-11T20:32:32.542Z,7.80
2019-01-11T20:34:59.572Z,8.13
2019-01-11T20:37:29.870Z,9.40
2019-01-11T20:39:56.758Z,11.70
2019-01-11T20:42:23.710Z,9.30
2019-01-11T20:44:50.534Z,10.40
2019-01-11T20:47:17.482Z,8.70
2019-01-11T20:49:44.438Z,8.90
2019-01-11T20:52:11.342Z,10.53
2019-01-11T20:54:38.248Z,8.80
2019-01-11T20:57:05.282Z,8.50
2019-01-11T20:59:32.087Z,8.80
2019-01-11T21:01:58.986Z,9.50
2019-01-11T21:04:26.055Z,8.57
2019-01-11T21:06:53.057Z,8.63
2019-01-11T21:09:19.966Z,9.30
2019-01-11T21:11:47.029Z,7.93
2019-01-11T21:14:14.033Z,7.27
2019-01-11T21:16:40.942Z,7.50
2019-01-11T21:19:07.866Z,9.03
2019-01-11T21:21:34.773Z,8.43
2019-01-11T21:24:01.782Z,6.77
2019-01-11T21:26:28.610Z,5.80
2019-01-11T21:28:55.425Z,5.97
2019-01-11T21:31:22.354Z,6.27
2019-01-11T21:33:49.325Z,6.70
2019-01-11T21:36:16.223Z,6.33
2019-01-11T21:38:43.021Z,5.20
2019-01-11T21:41:09.972Z,5.43
2019-01-11T21:43:36.967Z,5.70
2019-01-11T21:46:03.961Z,4.70
2019-01-11T21:48:31.002Z,5.10
2019-01-11T21:50:58.044Z,5.83
2019-01-11T21:53:24.947Z,5.60
2019-01-11T21:55:51.831Z,5.20
2019-01-11T21:58:18.748Z,5.40
2019-01-11T22:00:47.076Z,4.90
2019-01-11T22:03:19.078Z,4.63
2019-01-11T22:05:46.193Z,4.50
2019-01-11T22:08:13.193Z,5.20
2019-01-11T22:10:40.225Z,5.07
2019-01-11T22:13:07.156Z,5.20
2019-01-11T22:15:34.193Z,5.47
2019-01-11T22:18:01.189Z,4.90
2019-01-11T22:20:28.198Z,4.60
2019-01-11T22:22:55.002Z,6.20
2019-01-11T22:25:21.966Z,4.70
2019-01-11T22:27:48.796Z,5.20
2019-01-11T22:30:17.837Z,4.10
2019-01-11T22:32:44.773Z,4.00
2019-01-11T22:35:11.786Z,3.87
2019-01-11T22:37:38.790Z,3.70
2019-01-11T22:40:12.026Z,4.23
2019-01-11T22:42:38.990Z,3.27
2019-01-11T22:45:07.326Z,3.47
2019-01-11T22:47:34.369Z,3.00
2019-01-11T22:50:01.176Z,3.00
2019-01-11T22:52:28.174Z,2.97
2019-01-11T22:54:55.118Z,3.67
2019-01-11T22:57:21.930Z,3.33
2019-01-11T22:59:48.834Z,3.03
2019-01-11T23:02:33.255Z,3.53
2019-01-11T23:05:00.265Z,3.57
2019-01-11T23:07:38.376Z,3.33
2019-01-11T23:10:28.718Z,3.30
2019-01-11T23:13:02.291Z,2.90
2019-01-11T23:15:32.346Z,3.13
2019-01-11T23:18:11.426Z,3.33
2019-01-11T23:20:38.343Z,3.27
2019-01-11T23:23:06.853Z,3.70
2019-01-11T23:25:33.914Z,3.63
2019-01-11T23:28:00.820Z,3.03
2019-01-11T23:30:27.813Z,3.63
2019-01-11T23:32:54.758Z,4.07
2019-01-11T23:35:21.663Z,3.63
2019-01-11T23:37:48.696Z,3.73
2019-01-11T23:40:16.103Z,3.43
2019-01-11T23:42:43.011Z,4.03
2019-01-11T23:45:10.278Z,4.00
2019-01-11T23:47:37.325Z,4.13
2019-01-11T23:50:06.760Z,3.70
2019-01-11T23:52:33.587Z,4.47
2019-01-11T23:55:00.433Z,4.33
2019-01-11T23:57:27.365Z,3.90
2019-01-11T23:59:54.186Z,4.70
